sensor_id;sensor_type;location;lat;lon;timestamp;P1;durP1;ratioP1;P2;durP2;ratioP2
68247;SDS011;55064;49.636;12.164;2023-07-30T00:01:36;10.47;;;3.63;;
68247;SDS011;55064;49.636;12.164;2023-07-30T00:04:04;6.97;;;4.10;;
68247;SDS011;55064;49.636;12.164;2023-07-30T00:06:33;8.32;;;4.60;;
68247;SDS011;55064;49.636;12.164;2023-07-30T00:08:58;7.88;;;4.50;;
68247;SDS011;55064;49.636;12.164;2023-07-30T00:11:26;7.80;;;4.57;;
68247;SDS011;55064;49.636;12.164;2023-07-30T00:13:52;9.87;;;4.70;;
68247;SDS011;55064;49.636;12.164;2023-07-30T00:16:19;7.55;;;3.55;;
68247;SDS011;55064;49.636;12.164;2023-07-30T00:18:45;8.40;;;3.60;;
68247;SDS011;55064;49.636;12.164;2023-07-30T00:21:10;7.63;;;3.63;;
68247;SDS011;55064;49.636;12.164;2023-07-30T00:23:38;6.53;;;3.43;;
68247;SDS011;55064;49.636;12.164;2023-07-30T00:26:03;8.55;;;3.08;;
68247;SDS011;55064;49.636;12.164;2023-07-30T00:28:29;5.83;;;3.00;;
68247;SDS011;55064;49.636;12.164;2023-07-30T00:30:56;6.20;;;2.78;;
68247;SDS011;55064;49.636;12.164;2023-07-30T00:33:22;6.13;;;2.57;;
68247;SDS011;55064;49.636;12.164;2023-07-30T00:35:51;7.03;;;2.78;;
68247;SDS011;55064;49.636;12.164;2023-07-30T00:38:21;6.53;;;2.78;;
68247;SDS011;55064;49.636;12.164;2023-07-30T00:40:49;5.85;;;3.03;;
68247;SDS011;55064;49.636;12.164;2023-07-30T00:43:15;9.00;;;3.57;;
68247;SDS011;55064;49.636;12.164;2023-07-30T00:45:41;7.30;;;3.87;;
68247;SDS011;55064;49.636;12.164;2023-07-30T00:48:09;8.65;;;3.33;;
68247;SDS011;55064;49.636;12.164;2023-07-30T00:50:35;7.82;;;2.90;;
68247;SDS011;55064;49.636;12.164;2023-07-30T00:53:01;6.53;;;2.90;;
68247;SDS011;55064;49.636;12.164;2023-07-30T00:55:29;6.32;;;3.30;;
68247;SDS011;55064;49.636;12.164;2023-07-30T00:57:54;7.50;;;3.50;;
68247;SDS011;55064;49.636;12.164;2023-07-30T01:00:21;6.87;;;3.60;;
68247;SDS011;55064;49.636;12.164;2023-07-30T01:02:48;6.65;;;3.67;;
68247;SDS011;55064;49.636;12.164;2023-07-30T01:05:15;7.25;;;3.88;;
68247;SDS011;55064;49.636;12.164;2023-07-30T01:07:41;5.57;;;2.40;;
68247;SDS011;55064;49.636;12.164;2023-07-30T01:10:08;5.83;;;2.30;;
68247;SDS011;55064;49.636;12.164;2023-07-30T01:12:37;5.70;;;2.05;;
68247;SDS011;55064;49.636;12.164;2023-07-30T01:15:03;5.20;;;2.55;;
68247;SDS011;55064;49.636;12.164;2023-07-30T01:17:32;5.50;;;2.17;;
68247;SDS011;55064;49.636;12.164;2023-07-30T01:19:58;6.25;;;2.50;;
68247;SDS011;55064;49.636;12.164;2023-07-30T01:22:25;6.17;;;2.80;;
68247;SDS011;55064;49.636;12.164;2023-07-30T01:24:52;6.35;;;3.20;;
68247;SDS011;55064;49.636;12.164;2023-07-30T01:27:29;10.00;;;4.15;;
68247;SDS011;55064;49.636;12.164;2023-07-30T01:32:38;7.78;;;4.55;;
68247;SDS011;55064;49.636;12.164;2023-07-30T01:35:09;7.63;;;4.40;;
68247;SDS011;55064;49.636;12.164;2023-07-30T01:37:36;7.80;;;4.32;;
68247;SDS011;55064;49.636;12.164;2023-07-30T01:40:07;7.18;;;3.85;;
68247;SDS011;55064;49.636;12.164;2023-07-30T01:42:34;6.95;;;3.50;;
68247;SDS011;55064;49.636;12.164;2023-07-30T01:45:00;8.67;;;3.40;;
68247;SDS011;55064;49.636;12.164;2023-07-30T01:47:28;5.70;;;2.70;;
68247;SDS011;55064;49.636;12.164;2023-07-30T01:49:54;5.00;;;2.17;;
68247;SDS011;55064;49.636;12.164;2023-07-30T01:52:19;5.20;;;2.00;;
68247;SDS011;55064;49.636;12.164;2023-07-30T01:54:44;6.53;;;1.90;;
68247;SDS011;55064;49.636;12.164;2023-07-30T01:57:12;6.38;;;2.08;;
68247;SDS011;55064;49.636;12.164;2023-07-30T01:59:39;5.05;;;1.90;;
68247;SDS011;55064;49.636;12.164;2023-07-30T02:02:04;4.95;;;2.00;;
68247;SDS011;55064;49.636;12.164;2023-07-30T02:04:30;5.00;;;1.90;;
68247;SDS011;55064;49.636;12.164;2023-07-30T02:06:55;5.73;;;1.80;;
68247;SDS011;55064;49.636;12.164;2023-07-30T02:09:20;5.00;;;1.70;;
68247;SDS011;55064;49.636;12.164;2023-07-30T02:11:46;6.95;;;1.65;;
68247;SDS011;55064;49.636;12.164;2023-07-30T02:14:12;6.23;;;2.07;;
68247;SDS011;55064;49.636;12.164;2023-07-30T02:16:37;4.63;;;1.80;;
68247;SDS011;55064;49.636;12.164;2023-07-30T02:19:03;7.07;;;1.80;;
68247;SDS011;55064;49.636;12.164;2023-07-30T02:21:30;4.68;;;1.65;;
68247;SDS011;55064;49.636;12.164;2023-07-30T02:23:58;5.72;;;1.83;;
68247;SDS011;55064;49.636;12.164;2023-07-30T02:26:24;5.55;;;1.73;;
68247;SDS011;55064;49.636;12.164;2023-07-30T02:28:53;4.72;;;1.80;;
68247;SDS011;55064;49.636;12.164;2023-07-30T02:31:18;4.70;;;1.70;;
68247;SDS011;55064;49.636;12.164;2023-07-30T02:33:44;4.65;;;1.90;;
68247;SDS011;55064;49.636;12.164;2023-07-30T02:36:09;5.03;;;1.60;;
68247;SDS011;55064;49.636;12.164;2023-07-30T02:38:34;5.07;;;1.90;;
68247;SDS011;55064;49.636;12.164;2023-07-30T02:41:00;5.50;;;2.10;;
68247;SDS011;55064;49.636;12.164;2023-07-30T02:43:27;5.47;;;1.80;;
68247;SDS011;55064;49.636;12.164;2023-07-30T02:45:53;4.80;;;1.90;;
68247;SDS011;55064;49.636;12.164;2023-07-30T02:48:18;6.50;;;1.90;;
68247;SDS011;55064;49.636;12.164;2023-07-30T02:50:44;5.83;;;1.80;;
68247;SDS011;55064;49.636;12.164;2023-07-30T02:53:10;5.18;;;1.90;;
68247;SDS011;55064;49.636;12.164;2023-07-30T02:55:35;5.13;;;2.10;;
68247;SDS011;55064;49.636;12.164;2023-07-30T02:58:03;5.78;;;1.92;;
68247;SDS011;55064;49.636;12.164;2023-07-30T03:00:28;9.50;;;2.20;;
68247;SDS011;55064;49.636;12.164;2023-07-30T03:02:56;6.07;;;2.13;;
68247;SDS011;55064;49.636;12.164;2023-07-30T03:05:22;5.07;;;1.90;;
68247;SDS011;55064;49.636;12.164;2023-07-30T03:07:47;5.23;;;1.97;;
68247;SDS011;55064;49.636;12.164;2023-07-30T03:10:12;5.20;;;1.97;;
68247;SDS011;55064;49.636;12.164;2023-07-30T03:12:42;6.38;;;2.10;;
68247;SDS011;55064;49.636;12.164;2023-07-30T03:15:08;6.13;;;2.10;;
68247;SDS011;55064;49.636;12.164;2023-07-30T03:17:38;5.60;;;2.40;;
68247;SDS011;55064;49.636;12.164;2023-07-30T03:20:03;5.20;;;2.27;;
68247;SDS011;55064;49.636;12.164;2023-07-30T03:22:31;6.43;;;2.30;;
68247;SDS011;55064;49.636;12.164;2023-07-30T03:24:57;6.07;;;2.30;;
68247;SDS011;55064;49.636;12.164;2023-07-30T03:27:22;6.67;;;2.03;;
68247;SDS011;55064;49.636;12.164;2023-07-30T03:29:47;6.00;;;2.45;;
68247;SDS011;55064;49.636;12.164;2023-07-30T03:32:15;6.40;;;2.57;;
68247;SDS011;55064;49.636;12.164;2023-07-30T03:34:42;5.88;;;2.20;;
68247;SDS011;55064;49.636;12.164;2023-07-30T03:37:08;5.10;;;1.97;;
68247;SDS011;55064;49.636;12.164;2023-07-30T03:39:33;6.17;;;2.30;;
68247;SDS011;55064;49.636;12.164;2023-07-30T03:42:00;5.50;;;2.67;;
68247;SDS011;55064;49.636;12.164;2023-07-30T03:44:26;6.53;;;2.67;;
68247;SDS011;55064;49.636;12.164;2023-07-30T03:46:51;7.13;;;2.23;;
68247;SDS011;55064;49.636;12.164;2023-07-30T03:49:16;6.40;;;2.28;;
68247;SDS011;55064;49.636;12.164;2023-07-30T03:51:42;7.37;;;2.63;;
68247;SDS011;55064;49.636;12.164;2023-07-30T03:54:07;5.80;;;2.70;;
68247;SDS011;55064;49.636;12.164;2023-07-30T03:56:33;5.93;;;2.33;;
68247;SDS011;55064;49.636;12.164;2023-07-30T03:58:59;8.20;;;2.70;;
68247;SDS011;55064;49.636;12.164;2023-07-30T04:01:29;6.03;;;2.17;;
68247;SDS011;55064;49.636;12.164;2023-07-30T04:03:59;6.28;;;2.45;;
68247;SDS011;55064;49.636;12.164;2023-07-30T04:06:30;7.63;;;2.33;;
68247;SDS011;55064;49.636;12.164;2023-07-30T04:09:00;6.65;;;2.95;;
68247;SDS011;55064;49.636;12.164;2023-07-30T04:11:29;6.40;;;2.90;;
68247;SDS011;55064;49.636;12.164;2023-07-30T04:13:54;7.53;;;3.22;;
68247;SDS011;55064;49.636;12.164;2023-07-30T04:16:20;9.73;;;3.40;;
68247;SDS011;55064;49.636;12.164;2023-07-30T04:18:46;13.97;;;4.00;;
68247;SDS011;55064;49.636;12.164;2023-07-30T04:21:12;10.13;;;3.50;;
68247;SDS011;55064;49.636;12.164;2023-07-30T04:23:38;9.60;;;3.30;;
68247;SDS011;55064;49.636;12.164;2023-07-30T04:26:04;7.67;;;3.50;;
68247;SDS011;55064;49.636;12.164;2023-07-30T04:28:29;9.80;;;3.60;;
68247;SDS011;55064;49.636;12.164;2023-07-30T04:30:54;8.27;;;3.55;;
68247;SDS011;55064;49.636;12.164;2023-07-30T04:33:20;8.53;;;3.50;;
68247;SDS011;55064;49.636;12.164;2023-07-30T04:35:50;7.57;;;3.30;;
68247;SDS011;55064;49.636;12.164;2023-07-30T04:38:15;6.80;;;3.20;;
68247;SDS011;55064;49.636;12.164;2023-07-30T04:40:42;8.55;;;3.38;;
68247;SDS011;55064;49.636;12.164;2023-07-30T04:43:10;8.17;;;2.90;;
68247;SDS011;55064;49.636;12.164;2023-07-30T04:45:35;8.73;;;3.23;;
68247;SDS011;55064;49.636;12.164;2023-07-30T04:48:01;9.83;;;3.07;;
68247;SDS011;55064;49.636;12.164;2023-07-30T04:50:26;7.50;;;3.17;;
68247;SDS011;55064;49.636;12.164;2023-07-30T04:52:51;7.77;;;3.50;;
68247;SDS011;55064;49.636;12.164;2023-07-30T04:55:17;7.90;;;3.50;;
68247;SDS011;55064;49.636;12.164;2023-07-30T04:57:44;9.23;;;3.50;;
68247;SDS011;55064;49.636;12.164;2023-07-30T05:00:11;8.53;;;3.47;;
68247;SDS011;55064;49.636;12.164;2023-07-30T05:02:39;9.15;;;3.80;;
68247;SDS011;55064;49.636;12.164;2023-07-30T05:05:04;7.63;;;3.83;;
68247;SDS011;55064;49.636;12.164;2023-07-30T05:07:30;9.73;;;3.60;;
68247;SDS011;55064;49.636;12.164;2023-07-30T05:09:56;6.10;;;3.20;;
68247;SDS011;55064;49.636;12.164;2023-07-30T05:12:21;8.37;;;4.50;;
68247;SDS011;55064;49.636;12.164;2023-07-30T05:14:51;8.17;;;3.90;;
68247;SDS011;55064;49.636;12.164;2023-07-30T05:17:23;7.90;;;4.00;;
68247;SDS011;55064;49.636;12.164;2023-07-30T05:19:48;6.95;;;3.40;;
68247;SDS011;55064;49.636;12.164;2023-07-30T05:22:13;8.23;;;4.00;;
68247;SDS011;55064;49.636;12.164;2023-07-30T05:24:39;8.33;;;3.77;;
68247;SDS011;55064;49.636;12.164;2023-07-30T05:27:05;7.38;;;3.92;;
68247;SDS011;55064;49.636;12.164;2023-07-30T05:29:30;8.13;;;3.80;;
68247;SDS011;55064;49.636;12.164;2023-07-30T05:35:25;7.80;;;4.20;;
68247;SDS011;55064;49.636;12.164;2023-07-30T05:44:24;9.98;;;4.38;;
68247;SDS011;55064;49.636;12.164;2023-07-30T05:53:28;8.85;;;3.92;;
68247;SDS011;55064;49.636;12.164;2023-07-30T05:56:05;7.27;;;3.60;;
68247;SDS011;55064;49.636;12.164;2023-07-30T05:58:31;8.70;;;3.63;;
68247;SDS011;55064;49.636;12.164;2023-07-30T06:00:56;6.70;;;3.33;;
68247;SDS011;55064;49.636;12.164;2023-07-30T06:03:22;8.00;;;3.97;;
68247;SDS011;55064;49.636;12.164;2023-07-30T06:05:47;8.67;;;3.80;;
68247;SDS011;55064;49.636;12.164;2023-07-30T06:08:13;8.83;;;4.27;;
68247;SDS011;55064;49.636;12.164;2023-07-30T06:14:04;7.32;;;3.60;;
68247;SDS011;55064;49.636;12.164;2023-07-30T06:16:42;6.68;;;3.47;;
68247;SDS011;55064;49.636;12.164;2023-07-30T06:19:10;8.15;;;3.50;;
68247;SDS011;55064;49.636;12.164;2023-07-30T06:28:29;7.10;;;3.60;;
68247;SDS011;55064;49.636;12.164;2023-07-30T06:34:16;6.90;;;3.30;;
68247;SDS011;55064;49.636;12.164;2023-07-30T06:36:58;6.50;;;3.10;;
68247;SDS011;55064;49.636;12.164;2023-07-30T06:42:45;7.13;;;3.20;;
68247;SDS011;55064;49.636;12.164;2023-07-30T06:45:13;7.60;;;3.50;;
68247;SDS011;55064;49.636;12.164;2023-07-30T06:56:27;10.07;;;3.10;;
68247;SDS011;55064;49.636;12.164;2023-07-30T06:58:52;6.43;;;3.17;;
68247;SDS011;55064;49.636;12.164;2023-07-30T07:01:20;6.17;;;2.93;;
68247;SDS011;55064;49.636;12.164;2023-07-30T07:03:45;5.65;;;2.80;;
68247;SDS011;55064;49.636;12.164;2023-07-30T07:06:11;6.43;;;3.00;;
68247;SDS011;55064;49.636;12.164;2023-07-30T07:08:38;5.63;;;2.70;;
68247;SDS011;55064;49.636;12.164;2023-07-30T07:11:04;8.10;;;3.00;;
68247;SDS011;55064;49.636;12.164;2023-07-30T07:13:30;6.07;;;3.10;;
68247;SDS011;55064;49.636;12.164;2023-07-30T07:16:00;6.22;;;2.78;;
68247;SDS011;55064;49.636;12.164;2023-07-30T07:18:25;6.18;;;2.60;;
68247;SDS011;55064;49.636;12.164;2023-07-30T07:20:50;6.10;;;2.87;;
68247;SDS011;55064;49.636;12.164;2023-07-30T07:23:16;6.83;;;3.00;;
68247;SDS011;55064;49.636;12.164;2023-07-30T07:25:41;6.40;;;3.03;;
68247;SDS011;55064;49.636;12.164;2023-07-30T07:28:08;6.25;;;2.70;;
68247;SDS011;55064;49.636;12.164;2023-07-30T07:30:34;6.03;;;2.80;;
68247;SDS011;55064;49.636;12.164;2023-07-30T07:33:02;5.45;;;2.50;;
68247;SDS011;55064;49.636;12.164;2023-07-30T07:35:28;6.35;;;2.80;;
68247;SDS011;55064;49.636;12.164;2023-07-30T07:37:53;6.20;;;2.83;;
68247;SDS011;55064;49.636;12.164;2023-07-30T07:40:19;5.90;;;2.70;;
68247;SDS011;55064;49.636;12.164;2023-07-30T07:42:44;6.60;;;2.90;;
68247;SDS011;55064;49.636;12.164;2023-07-30T07:45:09;6.10;;;2.78;;
68247;SDS011;55064;49.636;12.164;2023-07-30T07:47:35;5.80;;;2.80;;
68247;SDS011;55064;49.636;12.164;2023-07-30T07:50:00;6.20;;;2.60;;
68247;SDS011;55064;49.636;12.164;2023-07-30T07:52:28;5.77;;;2.77;;
68247;SDS011;55064;49.636;12.164;2023-07-30T07:54:54;5.85;;;2.85;;
68247;SDS011;55064;49.636;12.164;2023-07-30T07:57:19;5.30;;;2.57;;
68247;SDS011;55064;49.636;12.164;2023-07-30T07:59:44;5.90;;;2.80;;
68247;SDS011;55064;49.636;12.164;2023-07-30T08:02:13;6.15;;;2.88;;
68247;SDS011;55064;49.636;12.164;2023-07-30T08:04:39;6.90;;;2.92;;
68247;SDS011;55064;49.636;12.164;2023-07-30T08:07:04;5.20;;;2.50;;
68247;SDS011;55064;49.636;12.164;2023-07-30T08:09:30;8.70;;;2.60;;
68247;SDS011;55064;49.636;12.164;2023-07-30T08:11:55;5.67;;;2.67;;
68247;SDS011;55064;49.636;12.164;2023-07-30T08:14:21;5.47;;;2.50;;
68247;SDS011;55064;49.636;12.164;2023-07-30T08:16:48;5.57;;;2.30;;
68247;SDS011;55064;49.636;12.164;2023-07-30T08:19:14;5.90;;;2.50;;
68247;SDS011;55064;49.636;12.164;2023-07-30T08:21:39;5.90;;;2.50;;
68247;SDS011;55064;49.636;12.164;2023-07-30T08:24:05;6.83;;;2.63;;
68247;SDS011;55064;49.636;12.164;2023-07-30T08:26:31;5.30;;;2.57;;
68247;SDS011;55064;49.636;12.164;2023-07-30T08:29:01;5.55;;;2.60;;
68247;SDS011;55064;49.636;12.164;2023-07-30T08:31:30;5.85;;;2.58;;
68247;SDS011;55064;49.636;12.164;2023-07-30T08:33:56;7.60;;;2.60;;
68247;SDS011;55064;49.636;12.164;2023-07-30T08:36:21;5.10;;;2.23;;
68247;SDS011;55064;49.636;12.164;2023-07-30T08:38:47;5.28;;;2.30;;
68247;SDS011;55064;49.636;12.164;2023-07-30T08:41:12;5.57;;;2.70;;
68247;SDS011;55064;49.636;12.164;2023-07-30T08:43:38;5.80;;;2.80;;
68247;SDS011;55064;49.636;12.164;2023-07-30T08:46:06;5.25;;;2.30;;
68247;SDS011;55064;49.636;12.164;2023-07-30T08:48:31;4.83;;;2.17;;
68247;SDS011;55064;49.636;12.164;2023-07-30T08:50:59;5.57;;;2.20;;
68247;SDS011;55064;49.636;12.164;2023-07-30T08:53:28;5.00;;;2.13;;
68247;SDS011;55064;49.636;12.164;2023-07-30T08:55:54;5.93;;;2.60;;
68247;SDS011;55064;49.636;12.164;2023-07-30T08:58:21;5.27;;;2.80;;
68247;SDS011;55064;49.636;12.164;2023-07-30T09:00:48;5.00;;;2.45;;
68247;SDS011;55064;49.636;12.164;2023-07-30T09:03:15;4.60;;;2.10;;
68247;SDS011;55064;49.636;12.164;2023-07-30T09:05:42;4.93;;;2.10;;
68247;SDS011;55064;49.636;12.164;2023-07-30T09:08:08;4.83;;;2.30;;
68247;SDS011;55064;49.636;12.164;2023-07-30T09:10:34;5.55;;;2.00;;
68247;SDS011;55064;49.636;12.164;2023-07-30T09:13:01;4.80;;;2.20;;
68247;SDS011;55064;49.636;12.164;2023-07-30T09:18:06;4.90;;;2.25;;
68247;SDS011;55064;49.636;12.164;2023-07-30T09:20:40;5.00;;;2.40;;
68247;SDS011;55064;49.636;12.164;2023-07-30T09:23:06;6.32;;;2.20;;
68247;SDS011;55064;49.636;12.164;2023-07-30T09:25:32;4.80;;;2.28;;
68247;SDS011;55064;49.636;12.164;2023-07-30T09:27:58;4.60;;;2.00;;
68247;SDS011;55064;49.636;12.164;2023-07-30T09:30:24;5.20;;;2.00;;
68247;SDS011;55064;49.636;12.164;2023-07-30T09:32:51;4.77;;;2.20;;
68247;SDS011;55064;49.636;12.164;2023-07-30T09:35:18;4.90;;;2.10;;
68247;SDS011;55064;49.636;12.164;2023-07-30T09:37:43;4.87;;;2.30;;
68247;SDS011;55064;49.636;12.164;2023-07-30T09:40:10;5.53;;;2.23;;
68247;SDS011;55064;49.636;12.164;2023-07-30T09:42:42;5.95;;;2.00;;
68247;SDS011;55064;49.636;12.164;2023-07-30T09:45:20;5.27;;;2.10;;
68247;SDS011;55064;49.636;12.164;2023-07-30T09:47:47;4.82;;;1.98;;
68247;SDS011;55064;49.636;12.164;2023-07-30T09:50:13;4.90;;;2.40;;
68247;SDS011;55064;49.636;12.164;2023-07-30T09:52:39;4.50;;;1.85;;
68247;SDS011;55064;49.636;12.164;2023-07-30T09:55:07;4.65;;;2.10;;
68247;SDS011;55064;49.636;12.164;2023-07-30T09:57:32;4.40;;;2.00;;
68247;SDS011;55064;49.636;12.164;2023-07-30T09:59:58;4.30;;;2.00;;
68247;SDS011;55064;49.636;12.164;2023-07-30T10:02:24;4.70;;;2.10;;
68247;SDS011;55064;49.636;12.164;2023-07-30T10:04:51;4.28;;;2.00;;
68247;SDS011;55064;49.636;12.164;2023-07-30T10:07:22;7.82;;;2.00;;
68247;SDS011;55064;49.636;12.164;2023-07-30T10:09:49;4.20;;;1.77;;
68247;SDS011;55064;49.636;12.164;2023-07-30T10:12:20;5.00;;;2.40;;
68247;SDS011;55064;49.636;12.164;2023-07-30T10:14:48;5.07;;;2.10;;
68247;SDS011;55064;49.636;12.164;2023-07-30T10:17:17;6.47;;;1.90;;
68247;SDS011;55064;49.636;12.164;2023-07-30T10:19:47;5.18;;;2.15;;
68247;SDS011;55064;49.636;12.164;2023-07-30T10:22:23;5.90;;;2.60;;
68247;SDS011;55064;49.636;12.164;2023-07-30T10:25:02;4.60;;;1.88;;
68247;SDS011;55064;49.636;12.164;2023-07-30T10:27:36;4.72;;;1.65;;
68247;SDS011;55064;49.636;12.164;2023-07-30T10:32:39;6.60;;;3.20;;
68247;SDS011;55064;49.636;12.164;2023-07-30T10:35:07;4.77;;;2.10;;
68247;SDS011;55064;49.636;12.164;2023-07-30T10:37:33;5.07;;;2.00;;
68247;SDS011;55064;49.636;12.164;2023-07-30T10:40:16;5.50;;;1.80;;
68247;SDS011;55064;49.636;12.164;2023-07-30T10:42:42;4.97;;;2.15;;
68247;SDS011;55064;49.636;12.164;2023-07-30T10:45:08;4.80;;;2.13;;
68247;SDS011;55064;49.636;12.164;2023-07-30T10:47:34;5.13;;;1.90;;
68247;SDS011;55064;49.636;12.164;2023-07-30T10:50:02;4.03;;;1.70;;
68247;SDS011;55064;49.636;12.164;2023-07-30T10:52:28;4.45;;;1.88;;
68247;SDS011;55064;49.636;12.164;2023-07-30T10:55:00;5.37;;;1.80;;
68247;SDS011;55064;49.636;12.164;2023-07-30T10:57:29;4.40;;;1.80;;
68247;SDS011;55064;49.636;12.164;2023-07-30T10:59:58;5.63;;;2.30;;
68247;SDS011;55064;49.636;12.164;2023-07-30T11:02:24;7.18;;;2.20;;
68247;SDS011;55064;49.636;12.164;2023-07-30T11:04:49;4.47;;;1.70;;
68247;SDS011;55064;49.636;12.164;2023-07-30T11:07:16;4.97;;;1.90;;
68247;SDS011;55064;49.636;12.164;2023-07-30T11:09:44;4.43;;;2.10;;
68247;SDS011;55064;49.636;12.164;2023-07-30T11:12:11;4.60;;;1.80;;
68247;SDS011;55064;49.636;12.164;2023-07-30T11:14:39;6.18;;;1.92;;
68247;SDS011;55064;49.636;12.164;2023-07-30T11:17:04;4.27;;;1.83;;
68247;SDS011;55064;49.636;12.164;2023-07-30T11:19:33;4.40;;;2.10;;
68247;SDS011;55064;49.636;12.164;2023-07-30T11:22:01;4.95;;;1.80;;
68247;SDS011;55064;49.636;12.164;2023-07-30T11:24:34;3.70;;;1.58;;
68247;SDS011;55064;49.636;12.164;2023-07-30T11:27:04;4.85;;;1.67;;
68247;SDS011;55064;49.636;12.164;2023-07-30T11:29:32;4.67;;;1.40;;
68247;SDS011;55064;49.636;12.164;2023-07-30T11:31:58;7.03;;;2.00;;
68247;SDS011;55064;49.636;12.164;2023-07-30T11:34:24;4.20;;;1.52;;
68247;SDS011;55064;49.636;12.164;2023-07-30T11:36:51;4.35;;;1.60;;
68247;SDS011;55064;49.636;12.164;2023-07-30T11:39:17;3.80;;;1.50;;
68247;SDS011;55064;49.636;12.164;2023-07-30T11:41:42;3.83;;;1.67;;
68247;SDS011;55064;49.636;12.164;2023-07-30T11:44:08;4.40;;;1.70;;
68247;SDS011;55064;49.636;12.164;2023-07-30T11:46:34;4.50;;;2.00;;
68247;SDS011;55064;49.636;12.164;2023-07-30T11:49:11;4.75;;;1.50;;
68247;SDS011;55064;49.636;12.164;2023-07-30T11:55:13;4.75;;;1.60;;
68247;SDS011;55064;49.636;12.164;2023-07-30T12:12:59;4.10;;;1.77;;
68247;SDS011;55064;49.636;12.164;2023-07-30T12:19:00;4.20;;;1.70;;
68247;SDS011;55064;49.636;12.164;2023-07-30T12:24:48;6.07;;;2.10;;
68247;SDS011;55064;49.636;12.164;2023-07-30T12:27:15;4.78;;;2.08;;
68247;SDS011;55064;49.636;12.164;2023-07-30T12:29:55;5.07;;;1.83;;
68247;SDS011;55064;49.636;12.164;2023-07-30T12:32:29;5.50;;;1.90;;
68247;SDS011;55064;49.636;12.164;2023-07-30T12:35:10;4.60;;;1.85;;
68247;SDS011;55064;49.636;12.164;2023-07-30T12:49:32;3.97;;;1.50;;
68247;SDS011;55064;49.636;12.164;2023-07-30T12:52:15;5.23;;;1.80;;
68247;SDS011;55064;49.636;12.164;2023-07-30T13:07:32;5.22;;;1.85;;
68247;SDS011;55064;49.636;12.164;2023-07-30T13:13:29;4.70;;;1.50;;
68247;SDS011;55064;49.636;12.164;2023-07-30T13:22:38;4.68;;;1.90;;
68247;SDS011;55064;49.636;12.164;2023-07-30T13:37:12;5.30;;;1.80;;
68247;SDS011;55064;49.636;12.164;2023-07-30T13:42:59;4.40;;;1.60;;
68247;SDS011;55064;49.636;12.164;2023-07-30T13:45:33;4.38;;;1.60;;
68247;SDS011;55064;49.636;12.164;2023-07-30T13:48:04;6.03;;;1.80;;
68247;SDS011;55064;49.636;12.164;2023-07-30T14:03:07;4.60;;;1.60;;
68247;SDS011;55064;49.636;12.164;2023-07-30T14:05:33;4.95;;;1.60;;
68247;SDS011;55064;49.636;12.164;2023-07-30T14:17:28;3.90;;;1.60;;
68247;SDS011;55064;49.636;12.164;2023-07-30T14:20:12;5.10;;;1.90;;
68247;SDS011;55064;49.636;12.164;2023-07-30T14:28:53;4.75;;;2.13;;
68247;SDS011;55064;49.636;12.164;2023-07-30T14:34:49;5.10;;;1.90;;
68247;SDS011;55064;49.636;12.164;2023-07-30T14:37:14;5.65;;;2.30;;
68247;SDS011;55064;49.636;12.164;2023-07-30T14:39:40;5.82;;;2.08;;
68247;SDS011;55064;49.636;12.164;2023-07-30T14:42:11;4.60;;;2.03;;
68247;SDS011;55064;49.636;12.164;2023-07-30T14:44:36;4.28;;;1.83;;
68247;SDS011;55064;49.636;12.164;2023-07-30T14:47:01;5.00;;;1.80;;
68247;SDS011;55064;49.636;12.164;2023-07-30T14:49:29;5.63;;;1.80;;
68247;SDS011;55064;49.636;12.164;2023-07-30T14:51:57;4.70;;;1.98;;
68247;SDS011;55064;49.636;12.164;2023-07-30T14:54:22;5.93;;;1.80;;
68247;SDS011;55064;49.636;12.164;2023-07-30T14:56:50;4.60;;;1.80;;
68247;SDS011;55064;49.636;12.164;2023-07-30T14:59:15;9.93;;;2.00;;
68247;SDS011;55064;49.636;12.164;2023-07-30T15:01:43;4.95;;;1.90;;
68247;SDS011;55064;49.636;12.164;2023-07-30T15:04:10;4.43;;;1.80;;
68247;SDS011;55064;49.636;12.164;2023-07-30T15:06:38;4.90;;;1.70;;
68247;SDS011;55064;49.636;12.164;2023-07-30T15:09:05;5.38;;;1.70;;
68247;SDS011;55064;49.636;12.164;2023-07-30T15:11:30;8.27;;;1.80;;
68247;SDS011;55064;49.636;12.164;2023-07-30T15:13:58;4.28;;;1.80;;
68247;SDS011;55064;49.636;12.164;2023-07-30T15:16:23;4.20;;;1.40;;
68247;SDS011;55064;49.636;12.164;2023-07-30T15:18:48;4.50;;;1.60;;
68247;SDS011;55064;49.636;12.164;2023-07-30T15:21:14;4.47;;;1.90;;
68247;SDS011;55064;49.636;12.164;2023-07-30T15:23:41;4.78;;;1.60;;
68247;SDS011;55064;49.636;12.164;2023-07-30T15:26:08;5.17;;;2.00;;
68247;SDS011;55064;49.636;12.164;2023-07-30T15:28:33;5.05;;;1.80;;
68247;SDS011;55064;49.636;12.164;2023-07-30T15:30:59;4.90;;;1.63;;
68247;SDS011;55064;49.636;12.164;2023-07-30T15:33:24;4.65;;;1.60;;
68247;SDS011;55064;49.636;12.164;2023-07-30T15:35:50;10.20;;;1.60;;
68247;SDS011;55064;49.636;12.164;2023-07-30T15:38:21;6.45;;;1.80;;
68247;SDS011;55064;49.636;12.164;2023-07-30T15:40:46;4.50;;;1.70;;
68247;SDS011;55064;49.636;12.164;2023-07-30T15:43:13;4.60;;;1.50;;
68247;SDS011;55064;49.636;12.164;2023-07-30T15:45:38;4.57;;;1.50;;
68247;SDS011;55064;49.636;12.164;2023-07-30T15:48:10;5.10;;;1.70;;
68247;SDS011;55064;49.636;12.164;2023-07-30T15:50:38;4.28;;;1.55;;
68247;SDS011;55064;49.636;12.164;2023-07-30T15:53:04;4.72;;;1.70;;
68247;SDS011;55064;49.636;12.164;2023-07-30T15:55:29;4.90;;;1.60;;
68247;SDS011;55064;49.636;12.164;2023-07-30T15:57:59;4.20;;;1.42;;
68247;SDS011;55064;49.636;12.164;2023-07-30T16:00:27;4.88;;;1.70;;
68247;SDS011;55064;49.636;12.164;2023-07-30T16:02:52;5.73;;;1.60;;
68247;SDS011;55064;49.636;12.164;2023-07-30T16:05:18;4.20;;;1.80;;
68247;SDS011;55064;49.636;12.164;2023-07-30T16:07:45;4.70;;;1.50;;
68247;SDS011;55064;49.636;12.164;2023-07-30T16:10:11;5.47;;;1.52;;
68247;SDS011;55064;49.636;12.164;2023-07-30T16:12:38;4.17;;;1.50;;
68247;SDS011;55064;49.636;12.164;2023-07-30T16:15:04;4.43;;;1.30;;
68247;SDS011;55064;49.636;12.164;2023-07-30T16:17:32;3.92;;;1.30;;
68247;SDS011;55064;49.636;12.164;2023-07-30T16:19:58;4.40;;;1.60;;
68247;SDS011;55064;49.636;12.164;2023-07-30T16:22:27;4.15;;;1.35;;
68247;SDS011;55064;49.636;12.164;2023-07-30T16:24:53;5.37;;;1.43;;
68247;SDS011;55064;49.636;12.164;2023-07-30T16:27:18;4.38;;;1.30;;
68247;SDS011;55064;49.636;12.164;2023-07-30T16:29:44;3.57;;;1.17;;
68247;SDS011;55064;49.636;12.164;2023-07-30T16:32:17;5.20;;;1.45;;
68247;SDS011;55064;49.636;12.164;2023-07-30T16:34:42;4.47;;;1.30;;
68247;SDS011;55064;49.636;12.164;2023-07-30T16:37:07;4.00;;;1.23;;
68247;SDS011;55064;49.636;12.164;2023-07-30T16:39:33;5.22;;;1.60;;
68247;SDS011;55064;49.636;12.164;2023-07-30T16:41:58;4.40;;;1.57;;
68247;SDS011;55064;49.636;12.164;2023-07-30T16:44:24;3.97;;;1.50;;
68247;SDS011;55064;49.636;12.164;2023-07-30T16:46:49;3.83;;;1.37;;
68247;SDS011;55064;49.636;12.164;2023-07-30T16:49:14;4.73;;;1.43;;
68247;SDS011;55064;49.636;12.164;2023-07-30T16:51:40;3.30;;;1.17;;
68247;SDS011;55064;49.636;12.164;2023-07-30T16:54:06;3.80;;;1.17;;
68247;SDS011;55064;49.636;12.164;2023-07-30T16:56:34;4.43;;;1.40;;
68247;SDS011;55064;49.636;12.164;2023-07-30T16:59:02;3.58;;;1.30;;
68247;SDS011;55064;49.636;12.164;2023-07-30T17:01:28;4.13;;;1.30;;
68247;SDS011;55064;49.636;12.164;2023-07-30T17:03:55;4.20;;;1.25;;
68247;SDS011;55064;49.636;12.164;2023-07-30T17:06:21;4.17;;;1.07;;
68247;SDS011;55064;49.636;12.164;2023-07-30T17:08:46;3.38;;;1.13;;
68247;SDS011;55064;49.636;12.164;2023-07-30T17:11:12;3.67;;;1.17;;